Time;durP1;ratioP1;P1;durP2;ratioP2;P2;SDS_P1;SDS_P2;PMS_P1;PMS_P2;Temp;Humidity;BMP_temperature;BMP_pressure;BME280_temperature;BME280_humidity;BME280_pressure;Samples;Min_cycle;Max_cycle;Signal;HPM_P1;HPM_P2
2022/06/23 00:02:07;;;;;;;13.00;5.60;;;;;;;20.71;78.00;64145.44;4957392;28;20743;-74
2022/06/23 00:04:38;;;;;;;7.53;5.18;;;;;;;20.74;77.34;64148.56;4987517;28;20223;-74
2022/06/23 00:07:08;;;;;;;12.65;5.43;;;;;;;20.82;77.09;64153.81;4963376;29;20232;-74
2022/06/23 00:09:38;;;;;;;13.85;6.30;;;;;;;20.82;76.63;64153.81;4946313;29;20532;-75
2022/06/23 00:12:33;;;;;;;9.45;5.72;;;;;;;20.79;77.09;64148.09;4992536;28;20219;-75
2022/06/23 00:15:19;;;;;;;6.30;5.70;;;;;;;20.82;76.47;64153.81;4988271;28;20239;-74
2022/06/23 00:17:56;;;;;;;9.77;5.95;;;;;;;20.84;76.46;64155.91;4953965;28;20448;-73
2022/06/23 00:20:29;;;;;;;8.30;5.65;;;;;;;20.85;76.72;64157.47;4964382;28;20406;-73
2022/06/23 00:23:02;;;;;;;8.65;5.22;;;;;;;20.78;76.62;64152.75;4946111;28;20421;-73
2022/06/23 00:25:39;;;;;;;8.93;6.25;;;;;;;20.76;77.31;64147.56;4948951;28;20220;-74
2022/06/23 00:28:06;;;;;;;8.13;5.68;;;;;;;20.75;77.29;64144.44;4945012;29;20481;-75
2022/06/23 00:30:38;;;;;;;13.07;5.90;;;;;;;20.72;77.28;64145.97;5032674;28;20338;-74
2022/06/23 00:33:17;;;;;;;8.98;5.35;;;;;;;20.69;77.93;64146.44;5039726;28;20391;-75
2022/06/23 00:35:45;;;;;;;11.90;5.40;;;;;;;20.64;78.02;64138.66;4953036;28;20320;-75
2022/06/23 00:38:20;;;;;;;14.70;6.18;;;;;;;20.66;78.62;64138.16;4968400;28;20493;-74
2022/06/23 00:40:47;;;;;;;7.45;5.07;;;;;;;20.66;78.54;64137.63;4975216;28;20258;-73
2022/06/23 00:43:14;;;;;;;9.93;5.78;;;;;;;20.66;78.78;64142.81;4965177;29;20215;-73
2022/06/23 00:45:47;;;;;;;9.32;5.97;;;;;;;20.48;80.23;64118.84;4964440;29;20580;-74
2022/06/23 00:48:22;;;;;;;10.43;5.28;;;;;;;20.45;80.34;64118.28;4996539;28;20231;-74
2022/06/23 00:50:56;;;;;;;10.63;5.32;;;;;;;20.42;80.28;64112.56;4955268;29;20422;-74
2022/06/23 00:53:30;;;;;;;12.27;5.90;;;;;;;20.32;80.18;64102.13;4944913;29;20201;-73
2022/06/23 00:56:04;;;;;;;7.78;5.70;;;;;;;20.31;80.59;64101.09;4950692;28;20244;-74
2022/06/23 00:58:41;;;;;;;6.13;5.53;;;;;;;20.29;80.85;64102.13;4963235;29;20224;-74
2022/06/23 01:01:16;;;;;;;9.68;5.65;;;;;;;20.33;80.77;64105.75;4963212;29;20222;-74
2022/06/23 01:03:52;;;;;;;8.98;5.40;;;;;;;20.22;81.36;64086.53;4961772;28;20199;-75
2022/06/23 01:06:26;;;;;;;11.10;5.70;;;;;;;20.27;81.79;64102.63;5008031;28;20234;-73
2022/06/23 01:08:58;;;;;;;9.65;5.97;;;;;;;20.26;81.95;64096.41;5064571;28;20204;-74
2022/06/23 01:11:32;;;;;;;10.60;6.28;;;;;;;20.25;81.80;64097.94;4996516;28;20234;-75
2022/06/23 01:14:07;;;;;;;8.60;5.47;;;;;;;20.24;81.58;64098.97;4966690;28;20498;-75
2022/06/23 01:16:41;;;;;;;8.52;5.50;;;;;;;20.24;81.41;64096.38;5063267;28;20232;-74
2022/06/23 01:19:32;;;;;;;9.43;5.65;;;;;;;20.18;82.43;64085.47;5064217;28;20230;-74
2022/06/23 01:22:04;;;;;;;16.75;6.80;;;;;;;20.14;82.06;64083.34;4995815;28;20234;-76
2022/06/23 01:24:38;;;;;;;6.75;6.00;;;;;;;20.12;82.64;64078.66;5013327;28;20221;-75
2022/06/23 01:27:25;;;;;;;12.02;6.35;;;;;;;20.19;82.08;64088.59;4979270;28;20262;-75
2022/06/23 01:30:00;;;;;;;5.53;5.07;;;;;;;20.11;82.68;64080.19;4970071;28;20227;-74
2022/06/23 01:32:31;;;;;;;8.60;5.57;;;;;;;20.04;83.77;64072.91;5011756;28;20203;-75
2022/06/23 01:35:07;;;;;;;11.23;5.70;;;;;;;20.01;84.23;64072.34;4960927;28;20225;-74
2022/06/23 01:37:41;;;;;;;9.35;6.72;;;;;;;20.01;84.31;64072.34;4963205;28;20259;-74
2022/06/23 01:40:17;;;;;;;9.00;6.53;;;;;;;19.98;84.23;64064.59;4962914;28;20224;-74
2022/06/23 01:42:50;;;;;;;9.73;5.78;;;;;;;19.95;84.88;64066.63;4959215;28;20196;-77
2022/06/23 01:45:24;;;;;;;7.95;6.40;;;;;;;19.87;85.13;64058.28;4963215;29;20251;-74
2022/06/23 01:47:55;;;;;;;7.28;5.93;;;;;;;19.92;85.14;64063.47;4962861;28;20505;-75
2022/06/23 01:50:32;;;;;;;9.52;5.40;;;;;;;19.90;85.63;64058.81;4958388;28;20289;-74
2022/06/23 01:53:21;;;;;;;13.75;6.28;;;;;;;19.87;85.86;64055.16;4944201;28;20204;-75
2022/06/23 01:56:05;;;;;;;7.03;5.68;;;;;;;19.81;85.81;64046.84;4951197;28;20287;-74
2022/06/23 01:58:47;;;;;;;11.32;6.65;;;;;;;19.76;87.06;64043.69;4962964;28;20192;-75
2022/06/23 02:01:20;;;;;;;16.25;6.07;;;;;;;19.72;87.25;64034.34;5025749;28;20240;-75
2022/06/23 02:03:55;;;;;;;6.72;6.00;;;;;;;19.61;87.52;64025.97;4944121;28;20446;-75
2022/06/23 02:06:27;;;;;;;10.20;6.10;;;;;;;19.64;87.79;64031.19;4943946;28;20217;-74
2022/06/23 02:09:02;;;;;;;10.23;6.72;;;;;;;19.69;87.83;64042.06;4974964;28;20199;-74
2022/06/23 02:11:35;;;;;;;6.95;5.95;;;;;;;19.73;87.68;64043.13;5020147;28;20199;-75
2022/06/23 02:14:07;;;;;;;7.50;6.13;;;;;;;19.68;88.34;64035.34;4982148;28;20227;-74
2022/06/23 02:16:46;;;;;;;8.15;6.38;;;;;;;19.61;89.23;64036.31;4982066;28;20381;-73
2022/06/23 02:19:22;;;;;;;6.30;5.78;;;;;;;19.55;89.84;64024.91;5023488;28;20235;-75
2022/06/23 02:21:52;;;;;;;8.60;5.80;;;;;;;19.58;89.98;64024.91;5063001;28;20204;-75
2022/06/23 02:24:26;;;;;;;11.63;6.45;;;;;;;19.47;90.32;64017.06;5063410;28;20207;-74
2022/06/23 02:27:03;;;;;;;10.13;6.63;;;;;;;19.46;90.62;64016.03;4993080;28;20254;-77
2022/06/23 02:29:39;;;;;;;10.43;6.55;;;;;;;19.42;91.21;64011.84;5063119;28;20216;-76
2022/06/23 02:32:16;;;;;;;8.07;6.15;;;;;;;19.33;92.02;64002.47;5026147;28;20220;-74
2022/06/23 02:34:48;;;;;;;11.82;6.15;;;;;;;19.34;92.15;64003.53;4962011;28;20272;-74
2022/06/23 02:37:58;;;;;;;7.55;6.35;;;;;;;19.30;92.71;63993.66;4974782;28;20266;-74
2022/06/23 02:40:35;;;;;;;7.35;6.57;;;;;;;19.23;93.02;63986.31;4962076;28;20212;-74
2022/06/23 02:43:11;;;;;;;10.05;6.72;;;;;;;19.27;93.05;63995.66;4962856;28;20204;-75
2022/06/23 02:46:30;;;;;;;9.30;5.95;;;;;;;19.21;93.47;63984.75;4993943;28;20220;-74
2022/06/23 02:49:22;;;;;;;12.93;7.00;;;;;;;19.14;94.56;63980.03;5063101;28;20193;-74
2022/06/23 02:52:12;;;;;;;7.85;6.10;;;;;;;19.13;94.61;63981.06;5062710;28;20228;-74
2022/06/23 02:55:13;;;;;;;21.17;17.67;;;;;;;19.13;95.20;63976.44;5026185;28;20283;-74
2022/06/23 02:57:44;;;;;;;9.98;6.18;;;;;;;19.08;95.10;63973.81;4971082;28;20231;-74
2022/06/23 03:00:20;;;;;;;10.57;7.07;;;;;;;19.07;95.44;63972.25;4961899;28;20220;-75
2022/06/23 03:02:59;;;;;;;11.02;7.43;;;;;;;19.09;95.30;63974.84;4959521;28;20204;-74
2022/06/23 03:05:36;;;;;;;20.23;14.45;;;;;;;19.09;95.35;63977.41;4942203;28;20225;-76
2022/06/23 03:08:08;;;;;;;30.20;23.20;;;;;;;19.05;95.80;63973.25;4942786;29;20205;-75
2022/06/23 03:10:41;;;;;;;14.75;7.53;;;;;;;19.06;95.44;63969.13;4948998;28;20215;-74
2022/06/23 03:13:13;;;;;;;9.25;6.82;;;;;;;19.14;94.99;63982.63;4971076;28;20252;-73
2022/06/23 03:15:48;;;;;;;13.90;5.72;;;;;;;19.12;95.17;63980.53;4960474;28;20250;-75
2022/06/23 03:18:22;;;;;;;10.32;7.20;;;;;;;19.17;95.53;63983.16;4942785;28;20330;-74
2022/06/23 03:20:56;;;;;;;13.40;6.90;;;;;;;19.20;95.25;63985.78;4944843;28;20227;-74
2022/06/23 03:23:31;;;;;;;11.88;6.88;;;;;;;19.25;95.10;63991.53;4943692;28;20246;-76
2022/06/23 03:26:09;;;;;;;10.65;7.03;;;;;;;19.30;94.82;63999.34;4957237;28;20231;-79
2022/06/23 03:28:42;;;;;;;64.03;44.40;;;;;;;19.39;94.27;64003.56;4962750;28;20205;-75
2022/06/23 03:31:22;;;;;;;10.18;7.38;;;;;;;19.47;93.66;64013.97;5005596;28;20220;-76
2022/06/23 03:33:55;;;;;;;6.07;5.53;;;;;;;19.45;93.10;64014.44;4944882;28;20216;-74
2022/06/23 03:36:29;;;;;;;6.95;6.18;;;;;;;19.48;92.62;64020.19;4950614;29;20236;-74
2022/06/23 03:41:52;;;;;;;8.38;6.07;;;;;;;19.60;92.24;64027.53;5035218;28;20299;-75
2022/06/23 03:44:25;;;;;;;8.10;6.47;;;;;;;19.69;92.06;64031.22;5058433;28;20195;-75
2022/06/23 03:46:57;;;;;;;9.90;6.63;;;;;;;19.74;92.38;64039.03;4942901;29;20247;-74
2022/06/23 03:49:49;;;;;;;8.70;6.70;;;;;;;19.53;95.01;64020.72;4962260;28;20224;-77
2022/06/23 03:52:24;;;;;;;11.85;6.75;;;;;;;19.65;95.40;64032.22;4963561;28;20215;-75
2022/06/23 03:54:58;;;;;;;11.25;7.72;;;;;;;19.63;96.61;64032.72;4959872;29;20544;-75
2022/06/23 03:57:28;;;;;;;9.93;6.55;;;;;;;19.76;94.90;64046.78;4960136;28;20239;-75
2022/06/23 04:00:18;;;;;;;9.85;6.43;;;;;;;19.91;94.84;64061.94;4960450;28;20552;-74
2022/06/23 04:02:49;;;;;;;12.50;7.20;;;;;;;20.08;93.59;64082.78;4960657;29;20423;-74
2022/06/23 04:05:23;;;;;;;8.35;6.07;;;;;;;20.12;92.87;64081.25;4962324;28;20290;-75
2022/06/23 04:07:56;;;;;;;8.55;6.30;;;;;;;20.28;92.92;64101.06;5018877;28;20212;-74
2022/06/23 04:10:30;;;;;;;10.35;6.95;;;;;;;20.34;89.51;64107.34;5070236;28;20247;-75
2022/06/23 04:13:03;;;;;;;8.15;6.55;;;;;;;20.44;89.49;64115.19;5070287;28;20195;-74
2022/06/23 04:15:33;;;;;;;10.30;7.35;;;;;;;20.48;86.94;64118.84;5043224;28;20224;-76
2022/06/23 04:18:04;;;;;;;14.50;7.28;;;;;;;20.53;86.61;64127.19;4970608;28;20259;-74
2022/06/23 04:20:36;;;;;;;10.18;7.28;;;;;;;20.55;86.50;64123.56;4970977;28;20228;-75
2022/06/23 04:23:09;;;;;;;9.43;7.53;;;;;;;20.56;87.70;64127.72;4965483;28;20200;-74
2022/06/23 04:25:53;;;;;;;11.50;7.57;;;;;;;20.46;88.58;64116.75;5013044;28;20224;-74
2022/06/23 04:28:28;;;;;;;14.93;8.10;;;;;;;20.32;89.90;64107.84;5046637;28;20222;-74
2022/06/23 04:30:58;;;;;;;16.85;8.23;;;;;;;20.37;90.18;64104.75;5062399;28;20270;-74
2022/06/23 04:33:28;;;;;;;10.05;8.15;;;;;;;20.32;91.39;64100.06;4948855;28;20495;-74
2022/06/23 04:35:58;;;;;;;12.85;7.68;;;;;;;20.55;88.47;64126.66;4952060;29;20291;-75
2022/06/23 04:38:32;;;;;;;11.18;6.82;;;;;;;20.71;87.80;64142.84;4964465;28;20235;-74
2022/06/23 04:41:06;;;;;;;9.80;7.05;;;;;;;20.99;84.86;64172.09;4963828;29;20582;-74
2022/06/23 04:43:38;;;;;;;8.80;7.55;;;;;;;21.22;82.94;64193.00;4957792;28;20364;-76
2022/06/23 04:46:11;;;;;;;7.97;7.18;;;;;;;21.30;84.18;64203.94;4944221;28;20240;-75
2022/06/23 04:48:48;;;;;;;8.68;7.38;;;;;;;21.07;86.11;64180.44;4944801;29;20288;-75
2022/06/23 04:51:26;;;;;;;9.15;8.13;;;;;;;21.08;89.66;64176.31;4947672;28;20540;-74
2022/06/23 04:54:00;;;;;;;12.10;7.78;;;;;;;21.39;85.81;64213.34;4958120;29;20210;-74
2022/06/23 04:56:36;;;;;;;10.45;7.57;;;;;;;21.60;84.21;64235.81;4962865;29;20258;-75
2022/06/23 04:59:17;;;;;;;10.20;7.63;;;;;;;21.76;84.20;64255.13;4963424;28;20188;-74
2022/06/23 05:01:48;;;;;;;11.50;8.27;;;;;;;21.71;83.40;64242.13;4952704;28;20247;-74
2022/06/23 05:04:21;;;;;;;13.68;8.43;;;;;;;21.52;84.63;64227.44;4959659;29;20218;-74
2022/06/23 05:06:52;;;;;;;11.43;7.70;;;;;;;21.45;84.20;64220.13;4963057;28;20268;-74
2022/06/23 05:09:27;;;;;;;14.88;8.35;;;;;;;21.64;84.67;64239.47;4962432;28;20260;-75
2022/06/23 05:11:57;;;;;;;11.63;7.38;;;;;;;21.80;83.92;64256.19;4971691;28;20199;-74
2022/06/23 05:14:36;;;;;;;14.85;8.10;;;;;;;21.87;86.45;64263.00;4982154;28;20229;-74
2022/06/23 05:17:10;;;;;;;10.40;7.88;;;;;;;21.97;85.30;64276.03;4982684;28;20239;-74
2022/06/23 05:19:40;;;;;;;10.38;7.45;;;;;;;22.26;83.52;64303.75;4967027;28;20227;-75
2022/06/23 05:22:26;;;;;;;9.88;7.72;;;;;;;22.48;80.65;64329.88;4962147;29;20543;-75
2022/06/23 05:24:56;;;;;;;12.82;7.25;;;;;;;22.59;81.35;64341.38;4963068;28;20227;-74
2022/06/23 05:27:28;;;;;;;11.43;7.22;;;;;;;22.66;77.91;64348.72;4962766;28;20210;-75
2022/06/23 05:30:00;;;;;;;14.63;7.70;;;;;;;22.50;77.19;64326.25;4955846;28;20216;-75
2022/06/23 05:32:31;;;;;;;11.25;7.53;;;;;;;22.43;79.18;64324.13;4943612;28;20209;-75
2022/06/23 05:35:06;;;;;;;10.25;7.35;;;;;;;22.50;81.79;64334.53;4947646;28;20228;-73
2022/06/23 05:37:39;;;;;;;9.20;6.90;;;;;;;22.86;81.30;64363.91;5000659;28;20468;-74
2022/06/23 05:40:19;;;;;;;7.97;6.10;;;;;;;22.98;76.00;64381.66;5064001;28;20224;-75
2022/06/23 05:42:50;;;;;;;13.52;6.05;;;;;;;22.55;77.94;64334.63;5064295;28;20213;-75
2022/06/23 05:45:23;;;;;;;12.82;6.85;;;;;;;22.72;77.43;64351.88;4978563;28;20251;-74
2022/06/23 05:47:50;;;;;;;6.65;6.10;;;;;;;22.81;77.29;64364.38;5044101;28;20251;-75
2022/06/23 05:50:21;;;;;;;9.68;7.07;;;;;;;22.34;78.05;64312.66;5063311;28;20307;-75
2022/06/23 05:52:57;;;;;;;14.25;7.32;;;;;;;21.93;81.18;64269.78;5054120;28;20197;-74
2022/06/23 05:55:32;;;;;;;8.73;7.07;;;;;;;21.62;83.80;64239.97;4967339;28;20456;-75
2022/06/23 05:58:06;;;;;;;18.13;7.53;;;;;;;20.83;89.84;64160.03;4963011;29;20458;-74
2022/06/23 06:00:38;;;;;;;17.25;9.60;;;;;;;20.54;94.52;64125.09;4962447;28;20486;-75
2022/06/23 06:03:15;;;;;;;20.65;10.73;;;;;;;19.12;100.00;63977.44;4956367;29;20506;-76
2022/06/23 06:05:44;;;;;;;11.43;7.57;;;;;;;17.72;100.00;63834.63;5047185;28;20232;-73
2022/06/23 06:08:17;;;;;;;0.00;0.00;;;;;;;16.75;100.00;63734.16;5064096;28;20204;-74
2022/06/23 06:10:47;;;;;;;0.00;0.00;;;;;;;16.48;100.00;63701.44;4994540;28;20290;-75
2022/06/23 06:13:20;;;;;;;1.63;1.10;;;;;;;16.42;100.00;63697.75;4984699;28;20197;-76
2022/06/23 06:15:53;;;;;;;0.00;0.00;;;;;;;16.35;100.00;63693.03;5011855;28;20235;-75
2022/06/23 06:18:25;;;;;;;0.00;0.00;;;;;;;16.25;100.00;63674.41;4963694;29;20242;-76
2022/06/23 06:20:55;;;;;;;0.00;0.00;;;;;;;16.39;100.00;63702.34;4958743;29;20443;-75
2022/06/23 06:23:33;;;;;;;0.00;0.00;;;;;;;16.37;100.00;63692.53;5015751;28;20577;-75
2022/06/23 06:26:02;;;;;;;0.00;0.00;;;;;;;16.46;100.00;63698.81;4959419;28;20540;-74
2022/06/23 06:28:31;;;;;;;0.00;0.00;;;;;;;16.61;100.00;63717.00;4962450;28;20382;-74
2022/06/23 06:31:05;;;;;;;0.00;0.00;;;;;;;16.63;100.00;63711.38;4962257;28;20452;-74
2022/06/23 06:33:46;;;;;;;0.20;0.20;;;;;;;16.51;100.00;63707.13;4948725;28;20271;-75
2022/06/23 06:36:34;;;;;;;0.50;0.50;;;;;;;16.78;100.00;63732.13;4951324;28;20278;-75
2022/06/23 06:39:07;;;;;;;0.00;0.00;;;;;;;16.87;100.00;63742.03;4961362;28;20596;-75
2022/06/23 06:41:37;;;;;;;0.00;0.00;;;;;;;16.90;100.00;63749.75;4962857;29;20561;-74
2022/06/23 06:44:05;;;;;;;0.00;0.00;;;;;;;16.86;100.00;63743.53;4962585;29;20429;-75
2022/06/23 06:46:33;;;;;;;0.00;0.00;;;;;;;16.92;100.00;63749.28;4964504;28;20260;-76
2022/06/23 06:49:01;;;;;;;0.00;0.00;;;;;;;16.82;100.00;63736.81;4964543;28;20203;-77
2022/06/23 06:51:29;;;;;;;0.10;0.10;;;;;;;16.87;100.00;63749.22;4965277;28;20541;-76
2022/06/23 06:54:01;;;;;;;0.20;0.20;;;;;;;16.74;100.00;63733.63;4962210;29;20202;-76
2022/06/23 06:56:40;;;;;;;0.00;0.00;;;;;;;16.92;100.00;63746.69;4999768;28;20251;-77
2022/06/23 06:59:13;;;;;;;0.00;0.00;;;;;;;16.99;100.00;63753.97;4963249;29;20226;-76
2022/06/23 07:01:42;;;;;;;0.00;0.00;;;;;;;17.18;100.00;63773.75;4962093;29;20196;-77
2022/06/23 07:04:13;;;;;;;0.00;0.00;;;;;;;17.24;100.00;63783.09;4954137;28;22652;-76
2022/06/23 07:06:42;;;;;;;0.00;0.00;;;;;;;17.43;100.00;63804.41;5063556;28;20184;-76
2022/06/23 07:09:17;;;;;;;0.00;0.00;;;;;;;17.75;100.00;63833.13;5063001;28;20204;-75
2022/06/23 07:11:53;;;;;;;0.00;0.00;;;;;;;17.73;100.00;63833.63;5007841;28;20207;-76
2022/06/23 07:14:31;;;;;;;0.00;0.00;;;;;;;17.96;100.00;63857.59;4986880;28;20204;-76
2022/06/23 07:17:04;;;;;;;0.00;0.00;;;;;;;18.08;100.00;63869.56;4962002;28;20204;-77
2022/06/23 07:19:39;;;;;;;0.00;0.00;;;;;;;18.29;100.00;63894.53;4962134;28;20287;-77
2022/06/23 07:22:14;;;;;;;0.00;0.00;;;;;;;18.49;100.00;63914.88;4958752;28;20208;-76
2022/06/23 07:24:49;;;;;;;0.00;0.00;;;;;;;18.70;100.00;63931.59;4987593;28;20250;-76
2022/06/23 07:27:24;;;;;;;0.20;0.20;;;;;;;19.07;100.00;63972.75;4962222;28;20377;-77
2022/06/23 07:29:57;;;;;;;0.00;0.00;;;;;;;19.50;100.00;64019.66;4959070;28;20219;-76
2022/06/23 07:32:34;;;;;;;0.00;0.00;;;;;;;19.51;100.00;64023.31;4969329;28;20208;-79
2022/06/23 07:35:14;;;;;;;0.00;0.00;;;;;;;19.32;100.00;63998.31;4963591;28;20528;-77
2022/06/23 07:37:47;;;;;;;0.00;0.00;;;;;;;19.06;100.00;63971.72;4960405;28;20559;-77
2022/06/23 07:40:18;;;;;;;0.03;0.03;;;;;;;18.69;100.00;63927.47;4951105;28;20262;-78
2022/06/23 07:42:59;;;;;;;0.00;0.00;;;;;;;18.94;100.00;63958.69;4975376;28;20235;-77
2022/06/23 07:45:30;;;;;;;0.00;0.00;;;;;;;19.55;100.00;64022.31;4944108;28;20259;-77
2022/06/23 07:47:57;;;;;;;0.00;0.00;;;;;;;19.99;100.00;64067.69;4943398;29;20393;-78
2022/06/23 07:50:25;;;;;;;0.15;0.15;;;;;;;20.47;100.00;64117.78;4956907;28;20564;-77
2022/06/23 07:52:52;;;;;;;0.00;0.00;;;;;;;21.06;100.00;64176.28;4966521;28;20230;-76
2022/06/23 07:55:23;;;;;;;0.35;0.35;;;;;;;21.47;100.00;64219.09;4968254;29;20223;-77
2022/06/23 07:57:53;;;;;;;1.02;0.50;;;;;;;21.76;100.00;64247.34;4956944;28;20359;-78
2022/06/23 08:00:20;;;;;;;0.00;0.00;;;;;;;22.13;100.00;64290.69;4949759;29;20228;-78
2022/06/23 08:02:52;;;;;;;0.00;0.00;;;;;;;22.38;100.00;64311.63;4951802;28;20200;-77
2022/06/23 08:05:24;;;;;;;0.10;0.10;;;;;;;22.53;100.00;64329.38;4966084;29;20228;-77
2022/06/23 08:07:52;;;;;;;0.10;0.10;;;;;;;22.15;100.00;64287.59;4964098;28;20271;-79
2022/06/23 08:10:22;;;;;;;0.00;0.00;;;;;;;22.00;100.00;64279.19;4957523;28;20675;-78
2022/06/23 08:12:55;;;;;;;0.00;0.00;;;;;;;21.28;100.00;64201.84;4965631;28;20481;-77
2022/06/23 08:18:20;;;;;;;0.10;0.10;;;;;;;21.03;100.00;64180.94;4959463;28;20247;-78
2022/06/23 08:20:54;;;;;;;0.00;0.00;;;;;;;21.01;100.00;64171.59;4966879;28;20274;-79
2022/06/23 08:23:24;;;;;;;0.08;0.08;;;;;;;20.76;100.00;64147.56;4960614;28;20238;-79
2022/06/23 08:25:51;;;;;;;1.35;0.93;;;;;;;20.47;100.00;64120.38;4967573;29;20240;-79
2022/06/23 08:28:21;;;;;;;0.00;0.00;;;;;;;20.18;100.00;64087.53;4967305;28;20204;-79
2022/06/23 08:30:48;;;;;;;0.00;0.00;;;;;;;19.99;100.00;64068.22;4965516;28;20312;-80
2022/06/23 08:33:15;;;;;;;0.00;0.00;;;;;;;20.34;100.00;64104.22;4951230;28;20235;-79
2022/06/23 08:35:44;;;;;;;0.00;0.00;;;;;;;20.46;100.00;64112.09;4967104;28;20224;-79
2022/06/23 08:38:15;;;;;;;0.00;0.00;;;;;;;20.67;100.00;64143.84;4965047;28;20232;-79
2022/06/23 08:40:56;;;;;;;0.00;0.00;;;;;;;21.02;100.00;64177.31;4952725;28;20605;-80
2022/06/23 08:43:30;;;;;;;0.00;0.00;;;;;;;21.34;100.00;64208.66;4967837;28;20542;-79
2022/06/23 08:46:06;;;;;;;0.00;0.00;;;;;;;21.14;100.00;64182.06;4964307;28;20232;-79
2022/06/23 08:48:41;;;;;;;0.38;0.38;;;;;;;21.29;100.00;64208.63;4956831;28;20274;-80
2022/06/23 08:51:19;;;;;;;0.13;0.13;;;;;;;21.79;100.00;64257.75;4968833;28;20283;-80
2022/06/23 08:53:59;;;;;;;2.85;2.75;;;;;;;21.73;100.00;64248.88;4966969;28;20362;-80
2022/06/23 08:56:31;;;;;;;0.00;0.00;;;;;;;21.91;100.00;64270.28;4969660;28;20268;-80
2022/06/23 08:59:09;;;;;;;0.17;0.17;;;;;;;21.93;100.00;64269.78;4956951;28;20221;-79
2022/06/23 09:01:43;;;;;;;0.00;0.00;;;;;;;22.15;100.00;64295.38;4950758;29;20197;-80
2022/06/23 09:04:19;;;;;;;0.25;0.25;;;;;;;21.88;100.00;64264.56;4956953;29;20222;-80
2022/06/23 09:06:53;;;;;;;0.00;0.00;;;;;;;21.76;100.00;64249.41;4951916;29;20419;-80
2022/06/23 09:09:32;;;;;;;0.00;0.00;;;;;;;22.25;100.00;64305.81;4961570;29;20203;-80
2022/06/23 09:12:10;;;;;;;0.00;0.00;;;;;;;22.67;100.00;64346.63;4959368;28;20192;-80
2022/06/23 09:15:19;;;;;;;0.10;0.10;;;;;;;22.95;100.00;64378.00;4964595;28;20254;-80
2022/06/23 09:18:36;;;;;;;0.00;0.00;;;;;;;23.20;100.00;64402.06;4980727;28;20254;-80
2022/06/23 09:21:27;;;;;;;0.00;0.00;;;;;;;22.98;100.00;64375.94;4990087;28;20232;-79
2022/06/23 09:24:45;;;;;;;0.00;0.00;;;;;;;22.83;98.91;64360.78;4989528;28;20360;-80
2022/06/23 09:27:16;;;;;;;0.00;0.00;;;;;;;23.43;99.69;64426.16;4968266;28;20201;-79
2022/06/23 09:29:56;;;;;;;0.00;0.00;;;;;;;23.55;95.78;64443.91;5052959;28;20255;-80
2022/06/23 09:32:54;;;;;;;0.00;0.00;;;;;;;23.32;95.43;64414.63;4969359;28;20233;-80
2022/06/23 09:35:44;;;;;;;0.00;0.00;;;;;;;23.21;94.47;64405.19;4948147;29;20469;-81
2022/06/23 09:38:39;;;;;;;0.00;0.00;;;;;;;22.75;94.46;64355.53;4969529;28;20232;-80
2022/06/23 09:41:16;;;;;;;0.00;0.00;;;;;;;22.99;98.52;64382.19;4951437;29;20319;-80
2022/06/23 09:44:07;;;;;;;0.00;0.00;;;;;;;22.68;100.00;64345.59;4968841;29;20211;-80
2022/06/23 09:46:56;;;;;;;0.00;0.00;;;;;;;23.20;100.00;64404.13;4950908;29;20211;-80
2022/06/23 09:49:44;;;;;;;0.00;0.00;;;;;;;23.37;97.36;64419.84;4950228;29;20197;-80
2022/06/23 09:52:28;;;;;;;0.13;0.13;;;;;;;23.74;97.27;64458.06;4962152;29;20264;-80
2022/06/23 09:55:47;;;;;;;3.40;1.85;;;;;;;23.93;94.70;64481.06;4967502;28;20247;-80
2022/06/23 09:58:35;;;;;;;0.00;0.00;;;;;;;23.86;95.15;64473.22;4968510;29;20282;-81
2022/06/23 10:01:19;;;;;;;0.00;0.00;;;;;;;23.70;95.68;64453.88;4969058;28;20269;-81
2022/06/23 10:03:58;;;;;;;0.00;0.00;;;;;;;23.70;94.95;64456.47;4963269;29;20204;-80
2022/06/23 10:06:47;;;;;;;0.00;0.00;;;;;;;23.49;97.66;64432.41;4955690;28;20270;-79
2022/06/23 10:09:29;;;;;;;0.40;0.15;;;;;;;23.80;96.68;64462.25;4967278;28;20239;-80
2022/06/23 10:12:36;;;;;;;8.93;7.03;;;;;;;23.95;93.85;64482.63;4970700;28;20192;-82
2022/06/23 10:15:26;;;;;;;6.90;5.25;;;;;;;24.31;92.07;64517.22;4968768;28;20412;-82
2022/06/23 10:18:18;;;;;;;8.52;5.78;;;;;;;23.92;88.27;64482.09;4968776;29;20211;-80
2022/06/23 10:21:05;;;;;;;13.10;6.75;;;;;;;24.14;90.75;64502.00;4969971;29;20280;-82
2022/06/23 10:23:57;;;;;;;8.10;6.10;;;;;;;24.02;86.70;64486.84;4970627;28;20485;-81
2022/06/23 10:26:38;;;;;;;10.18;6.25;;;;;;;24.36;92.00;64525.56;4969232;29;20291;-80
2022/06/23 10:29:20;;;;;;;11.98;5.53;;;;;;;24.18;89.76;64501.00;4962094;29;20202;-82
2022/06/23 10:32:20;;;;;;;8.07;7.30;;;;;;;23.77;89.10;64459.13;4967410;28;20204;-81
2022/06/23 10:35:09;;;;;;;10.98;7.28;;;;;;;23.85;94.59;64472.69;4967028;29;20231;-81
2022/06/23 10:38:15;;;;;;;10.98;6.40;;;;;;;23.50;91.75;64430.34;4968098;28;20421;-80
2022/06/23 10:41:01;;;;;;;11.35;7.75;;;;;;;23.41;92.39;64426.66;4968702;29;20230;-81
2022/06/23 10:43:46;;;;;;;9.45;7.82;;;;;;;23.53;89.12;64438.69;4970107;28;20201;-79
2022/06/23 10:46:14;;;;;;;12.93;7.72;;;;;;;23.60;92.12;64446.53;4966715;28;20220;-80
2022/06/23 10:49:22;;;;;;;13.30;8.15;;;;;;;24.00;90.58;64485.28;4965894;28;20219;-80
2022/06/23 10:52:15;;;;;;;9.73;7.68;;;;;;;24.69;89.24;64554.94;4966620;28;20300;-81
2022/06/23 10:55:14;;;;;;;9.15;7.57;;;;;;;24.68;87.84;64553.34;4965068;28;20234;-80
2022/06/23 10:58:08;;;;;;;15.15;8.85;;;;;;;24.93;84.96;64585.28;4962222;28;20203;-82
2022/06/23 11:00:46;;;;;;;13.82;7.82;;;;;;;25.44;88.21;64635.59;4964668;29;20243;-80
2022/06/23 11:03:34;;;;;;;14.50;9.35;;;;;;;24.71;87.38;64559.13;4964662;29;20227;-81
2022/06/23 11:06:22;;;;;;;13.68;9.82;;;;;;;25.08;89.11;64595.78;4960057;29;20221;-81
2022/06/23 11:09:08;;;;;;;13.23;8.70;;;;;;;25.33;83.26;64626.66;4965365;28;20380;-81
2022/06/23 11:11:53;;;;;;;11.02;7.75;;;;;;;25.44;85.69;64635.09;4976423;28;20203;-81
2022/06/23 11:14:32;;;;;;;12.70;7.85;;;;;;;25.33;82.90;64618.84;4969346;28;20203;-81
2022/06/23 11:17:08;;;;;;;20.33;8.95;;;;;;;24.95;86.05;64586.84;4956751;28;20224;-80
2022/06/23 11:19:48;;;;;;;16.45;8.48;;;;;;;25.10;85.45;64600.47;4980710;28;20246;-80
2022/06/23 11:22:36;;;;;;;10.27;8.50;;;;;;;24.75;85.59;64563.28;4993765;28;20215;-81
2022/06/23 11:25:17;;;;;;;7.72;6.95;;;;;;;24.98;87.69;64584.78;4958753;28;20228;-81
2022/06/23 11:27:55;;;;;;;12.57;7.65;;;;;;;24.90;85.95;64576.41;4963688;29;20222;-80
2022/06/23 11:30:30;;;;;;;7.95;7.13;;;;;;;24.85;91.14;64576.91;4967457;29;20254;-80
2022/06/23 11:33:11;;;;;;;16.50;8.32;;;;;;;24.69;85.88;64559.63;4967230;28;20489;-81
2022/06/23 11:36:02;;;;;;;11.27;7.85;;;;;;;24.62;89.20;64547.59;4967667;28;20568;-80
2022/06/23 11:38:56;;;;;;;13.38;8.13;;;;;;;24.58;90.64;64550.69;4971156;28;20232;-81
2022/06/23 11:41:55;;;;;;;9.82;7.43;;;;;;;24.61;90.80;64551.22;4984827;28;20223;-79
2022/06/23 11:44:59;;;;;;;11.13;7.68;;;;;;;25.04;90.20;64593.66;4968472;28;20204;-80
2022/06/23 11:47:40;;;;;;;13.75;7.85;;;;;;;25.32;88.75;64622.47;5018473;28;20214;-81
2022/06/23 11:50:13;;;;;;;9.85;8.30;;;;;;;25.32;84.89;64622.47;4967946;29;20220;-79
2022/06/23 11:53:11;;;;;;;8.00;6.70;;;;;;;25.64;84.49;64656.56;4968575;28;20212;-81
2022/06/23 11:55:48;;;;;;;11.32;6.10;;;;;;;25.64;76.74;64656.03;4965619;28;20284;-84
2022/06/23 11:58:45;;;;;;;10.38;4.85;;;;;;;25.93;71.78;64681.19;4963223;29;20197;-79
2022/06/23 12:01:16;;;;;;;9.25;5.20;;;;;;;25.79;73.41;64672.28;4967178;28;20329;-80
2022/06/23 12:04:13;;;;;;;7.82;4.47;;;;;;;25.48;68.72;64639.25;4961451;29;20229;-81
2022/06/23 12:06:56;;;;;;;11.52;5.35;;;;;;;25.69;70.11;64656.06;4965552;28;20234;-79
2022/06/23 12:09:28;;;;;;;9.13;4.97;;;;;;;26.42;68.98;64737.78;4958625;28;20197;-79
2022/06/23 12:11:57;;;;;;;13.32;5.13;;;;;;;26.19;69.48;64711.09;4982055;28;20195;-81
2022/06/23 12:14:26;;;;;;;7.40;5.10;;;;;;;26.59;64.55;64755.09;4969935;29;20473;-82
2022/06/23 12:16:57;;;;;;;11.82;4.93;;;;;;;26.60;61.14;64758.75;4961478;28;20239;-80
2022/06/23 12:19:34;;;;;;;11.70;5.35;;;;;;;26.84;63.67;64786.56;4966618;28;20235;-82
2022/06/23 12:22:13;;;;;;;7.88;5.30;;;;;;;26.53;59.40;64748.81;4969544;28;20222;-80